PHTO/ITO METAR and TAF weather

Enter ICAO airport designator
Station Type Date Time Source
PHTO METAR 2022/06/26 08:53 UTC NOAA

PHTO 260853Z AUTO 25010KT 10SM OVC048 21/20 A3004 RMK AO2 RAE47 SLP170 P0009 60022 T02060200 50010 TSNO


Station Type Date Time Source
PHTO Decoded METAR 2022/06/26 08:53 UTC NOAA

HILO INTERNATIONAL AIRPORT, HI, United States (PHTO) 19-43N 155-03W 12M
Jun 26, 2022 - 04:53 AM EDT / 2022.06.26 0853 UTC
Wind: from the WSW (250 degrees) at 12 MPH (10 KT):0
Visibility: 10 mile(s):0
Sky conditions: overcast
Precipitation last hour: 0.09 inches
Temperature: 69.1 F (20.6 C)
Dew Point: 68.0 F (20.0 C)
Relative Humidity: 96%
Pressure (altimeter): 30.04 in. Hg (1017 hPa)
Pressure tendency: 0.03 inches (1.0 hPa) higher than three hours ago
ob: PHTO 260853Z AUTO 25010KT 10SM OVC048 21/20 A3004 RMK AO2 RAE47 SLP170 P0009 60022 T02060200 50010 TSNO
cycle: 9

Station Type Date Time Source
PHTO TAF 2022/06/26 06:36 UTC NOAA

TAF PHTO 260532Z 2606/2706 24005KT P6SM VCSH BKN020 OVC035
TEMPO 2606/2610 3SM SHRA OVC020
FM262000 06008KT P6SM VCSH SCT025 BKN045

Example: see airport list